sensor_id;sensor_type;location;lat;lon;timestamp;pressure;altitude;pressure_sealevel;temperature;humidity
48926;BME280;39838;59.938;30.642;2023-02-11T00:00:55;99950.78;;;-2.64;78.00
48926;BME280;39838;59.938;30.642;2023-02-11T00:03:22;99952.47;;;-2.65;78.23
48926;BME280;39838;59.938;30.642;2023-02-11T00:05:57;99962.75;;;-2.63;78.17
48926;BME280;39838;59.938;30.642;2023-02-11T00:08:25;99944.84;;;-2.65;78.19
48926;BME280;39838;59.938;30.642;2023-02-11T00:10:53;99944.06;;;-2.64;78.38
48926;BME280;39838;59.938;30.642;2023-02-11T00:13:22;99943.03;;;-2.67;78.31
48926;BME280;39838;59.938;30.642;2023-02-11T00:15:49;99938.81;;;-2.67;78.62
48926;BME280;39838;59.938;30.642;2023-02-11T00:18:17;99941.44;;;-2.65;78.64
48926;BME280;39838;59.938;30.642;2023-02-11T00:20:44;99939.91;;;-2.62;78.51
48926;BME280;39838;59.938;30.642;2023-02-11T00:23:11;99907.66;;;-2.63;78.38
48926;BME280;39838;59.938;30.642;2023-02-11T00:25:40;99927.25;;;-2.60;78.73
48926;BME280;39838;59.938;30.642;2023-02-11T00:28:07;99906.97;;;-2.59;78.35
48926;BME280;39838;59.938;30.642;2023-02-11T00:30:36;99905.28;;;-2.58;78.55
48926;BME280;39838;59.938;30.642;2023-02-11T00:33:03;99903.09;;;-2.51;78.50
48926;BME280;39838;59.938;30.642;2023-02-11T00:35:31;99905.81;;;-2.46;78.23
48926;BME280;39838;59.938;30.642;2023-02-11T00:37:58;99908.56;;;-2.41;78.11
48926;BME280;39838;59.938;30.642;2023-02-11T00:40:25;99903.59;;;-2.38;78.17
48926;BME280;39838;59.938;30.642;2023-02-11T00:42:52;99906.06;;;-2.40;77.88
48926;BME280;39838;59.938;30.642;2023-02-11T00:45:19;99909.53;;;-2.38;78.13
48926;BME280;39838;59.938;30.642;2023-02-11T00:47:48;99911.31;;;-2.37;77.96
48926;BME280;39838;59.938;30.642;2023-02-11T00:50:15;99899.38;;;-2.38;77.83
48926;BME280;39838;59.938;30.642;2023-02-11T00:52:42;99893.50;;;-2.37;78.02
48926;BME280;39838;59.938;30.642;2023-02-11T00:55:09;99895.28;;;-2.34;78.11
48926;BME280;39838;59.938;30.642;2023-02-11T00:57:36;99896.28;;;-2.31;78.14
48926;BME280;39838;59.938;30.642;2023-02-11T01:00:04;99891.06;;;-2.34;78.19
48926;BME280;39838;59.938;30.642;2023-02-11T01:02:32;99875.25;;;-2.27;77.94
48926;BME280;39838;59.938;30.642;2023-02-11T01:05:00;99882.81;;;-2.28;77.96
48926;BME280;39838;59.938;30.642;2023-02-11T01:07:28;99882.00;;;-2.27;77.84
48926;BME280;39838;59.938;30.642;2023-02-11T01:09:56;99880.53;;;-2.22;77.84
48926;BME280;39838;59.938;30.642;2023-02-11T01:12:23;99870.34;;;-2.22;77.79
48926;BME280;39838;59.938;30.642;2023-02-11T01:14:50;99864.41;;;-2.23;77.70
48926;BME280;39838;59.938;30.642;2023-02-11T01:17:17;99868.63;;;-2.23;77.84
48926;BME280;39838;59.938;30.642;2023-02-11T01:19:44;99869.59;;;-2.20;77.86
48926;BME280;39838;59.938;30.642;2023-02-11T01:22:12;99863.69;;;-2.18;77.84
48926;BME280;39838;59.938;30.642;2023-02-11T01:24:40;99866.06;;;-2.23;77.75
48926;BME280;39838;59.938;30.642;2023-02-11T01:27:07;99857.44;;;-2.27;77.95
48926;BME280;39838;59.938;30.642;2023-02-11T01:29:34;99861.59;;;-2.29;78.04
48926;BME280;39838;59.938;30.642;2023-02-11T01:32:01;99853.97;;;-2.29;78.05
48926;BME280;39838;59.938;30.642;2023-02-11T01:34:28;99854.78;;;-2.30;78.22
48926;BME280;39838;59.938;30.642;2023-02-11T01:36:57;99847.06;;;-2.31;78.16
48926;BME280;39838;59.938;30.642;2023-02-11T01:39:26;99844.66;;;-2.28;78.00
48926;BME280;39838;59.938;30.642;2023-02-11T01:41:53;99848.13;;;-2.26;78.11
48926;BME280;39838;59.938;30.642;2023-02-11T01:44:26;99833.31;;;-2.36;78.24
48926;BME280;39838;59.938;30.642;2023-02-11T01:46:54;99830.81;;;-2.35;78.03
48926;BME280;39838;59.938;30.642;2023-02-11T01:49:25;99836.00;;;-2.32;78.14
48926;BME280;39838;59.938;30.642;2023-02-11T01:51:57;99826.44;;;-2.37;78.17
48926;BME280;39838;59.938;30.642;2023-02-11T01:54:30;99804.91;;;-2.45;78.13
48926;BME280;39838;59.938;30.642;2023-02-11T01:57:19;99823.38;;;-2.30;78.07
48926;BME280;39838;59.938;30.642;2023-02-11T02:00:03;99826.91;;;-2.27;78.16
48926;BME280;39838;59.938;30.642;2023-02-11T02:02:35;99814.22;;;-2.25;77.96
48926;BME280;39838;59.938;30.642;2023-02-11T02:05:13;99818.75;;;-2.18;77.61
48926;BME280;39838;59.938;30.642;2023-02-11T02:07:46;99822.00;;;-2.22;77.59
48926;BME280;39838;59.938;30.642;2023-02-11T02:10:20;99791.84;;;-2.34;77.69
48926;BME280;39838;59.938;30.642;2023-02-11T02:12:48;99805.06;;;-2.22;77.63
48926;BME280;39838;59.938;30.642;2023-02-11T02:15:26;99809.38;;;-2.19;77.42
48926;BME280;39838;59.938;30.642;2023-02-11T02:18:00;99801.81;;;-2.17;77.28
48926;BME280;39838;59.938;30.642;2023-02-11T02:20:58;99807.75;;;-2.17;77.28
48926;BME280;39838;59.938;30.642;2023-02-11T02:23:57;99797.56;;;-2.17;77.33
48926;BME280;39838;59.938;30.642;2023-02-11T02:26:42;99799.19;;;-2.19;77.11
48926;BME280;39838;59.938;30.642;2023-02-11T02:29:28;99774.03;;;-2.34;77.30
48926;BME280;39838;59.938;30.642;2023-02-11T02:32:39;99790.50;;;-2.24;77.01
48926;BME280;39838;59.938;30.642;2023-02-11T02:35:18;99789.66;;;-2.25;77.09
48926;BME280;39838;59.938;30.642;2023-02-11T02:37:54;99777.50;;;-2.32;76.53
48926;BME280;39838;59.938;30.642;2023-02-11T02:40:25;99777.63;;;-2.29;77.21
48926;BME280;39838;59.938;30.642;2023-02-11T02:42:55;99779.16;;;-2.32;76.87
48926;BME280;39838;59.938;30.642;2023-02-11T02:45:23;99782.28;;;-2.39;76.99
48926;BME280;39838;59.938;30.642;2023-02-11T02:47:52;99778.63;;;-2.46;77.06
48926;BME280;39838;59.938;30.642;2023-02-11T02:50:23;99777.00;;;-2.44;76.93
48926;BME280;39838;59.938;30.642;2023-02-11T02:53:01;99775.25;;;-2.45;76.93
48926;BME280;39838;59.938;30.642;2023-02-11T02:55:51;99763.34;;;-2.46;76.90
48926;BME280;39838;59.938;30.642;2023-02-11T03:01:33;99768.69;;;-2.40;76.68
48926;BME280;39838;59.938;30.642;2023-02-11T03:04:10;99761.63;;;-2.47;76.47
48926;BME280;39838;59.938;30.642;2023-02-11T03:06:47;99751.09;;;-2.56;76.78
48926;BME280;39838;59.938;30.642;2023-02-11T03:09:20;99761.25;;;-2.56;76.89
48926;BME280;39838;59.938;30.642;2023-02-11T03:11:49;99755.47;;;-2.52;76.84
48926;BME280;39838;59.938;30.642;2023-02-11T03:14:17;99738.22;;;-2.59;77.09
48926;BME280;39838;59.938;30.642;2023-02-11T03:16:46;99762.72;;;-2.40;76.62
48926;BME280;39838;59.938;30.642;2023-02-11T03:19:19;99757.44;;;-2.45;76.33
48926;BME280;39838;59.938;30.642;2023-02-11T03:21:48;99764.47;;;-2.39;76.29
48926;BME280;39838;59.938;30.642;2023-02-11T03:24:20;99746.13;;;-2.53;76.52
48926;BME280;39838;59.938;30.642;2023-02-11T03:26:52;99755.47;;;-2.52;76.84
48926;BME280;39838;59.938;30.642;2023-02-11T03:29:30;99749.53;;;-2.53;76.58
48926;BME280;39838;59.938;30.642;2023-02-11T03:32:01;99741.16;;;-2.50;76.72
48926;BME280;39838;59.938;30.642;2023-02-11T03:34:38;99735.22;;;-2.51;76.47
48926;BME280;39838;59.938;30.642;2023-02-11T03:37:09;99722.41;;;-2.52;76.30
48926;BME280;39838;59.938;30.642;2023-02-11T03:39:40;99699.22;;;-2.60;76.82
48926;BME280;39838;59.938;30.642;2023-02-11T03:42:12;99714.88;;;-2.51;76.46
48926;BME280;39838;59.938;30.642;2023-02-11T03:44:49;99698.53;;;-2.56;76.48
48926;BME280;39838;59.938;30.642;2023-02-11T03:47:20;99711.97;;;-2.37;76.71
48926;BME280;39838;59.938;30.642;2023-02-11T03:49:51;99693.00;;;-2.45;76.34
48926;BME280;39838;59.938;30.642;2023-02-11T03:52:20;99713.19;;;-2.28;76.23
48926;BME280;39838;59.938;30.642;2023-02-11T03:54:52;99710.72;;;-2.26;76.18
48926;BME280;39838;59.938;30.642;2023-02-11T03:57:20;99705.66;;;-2.25;76.12
48926;BME280;39838;59.938;30.642;2023-02-11T03:59:55;99692.84;;;-2.28;76.15
48926;BME280;39838;59.938;30.642;2023-02-11T04:02:22;99698.69;;;-2.30;76.42
48926;BME280;39838;59.938;30.642;2023-02-11T04:04:52;99694.56;;;-2.27;76.10
48926;BME280;39838;59.938;30.642;2023-02-11T04:07:19;99699.75;;;-2.24;76.06
48926;BME280;39838;59.938;30.642;2023-02-11T04:09:46;99688.81;;;-2.23;75.98
48926;BME280;39838;59.938;30.642;2023-02-11T04:12:14;99680.16;;;-2.26;75.95
48926;BME280;39838;59.938;30.642;2023-02-11T04:14:41;99682.78;;;-2.25;76.06
48926;BME280;39838;59.938;30.642;2023-02-11T04:17:08;99682.03;;;-2.22;75.75
48926;BME280;39838;59.938;30.642;2023-02-11T04:19:35;99669.59;;;-2.14;75.91
48926;BME280;39838;59.938;30.642;2023-02-11T04:22:04;99669.78;;;-2.10;75.72
48926;BME280;39838;59.938;30.642;2023-02-11T04:24:31;99668.88;;;-2.10;75.42
48926;BME280;39838;59.938;30.642;2023-02-11T04:26:58;99662.91;;;-2.11;75.42
48926;BME280;39838;59.938;30.642;2023-02-11T04:29:25;99661.16;;;-2.13;75.54
48926;BME280;39838;59.938;30.642;2023-02-11T04:31:53;99656.91;;;-2.13;75.26
48926;BME280;39838;59.938;30.642;2023-02-11T04:34:21;99659.50;;;-2.11;75.30
48926;BME280;39838;59.938;30.642;2023-02-11T04:36:49;99651.81;;;-2.13;75.24
48926;BME280;39838;59.938;30.642;2023-02-11T04:39:17;99651.78;;;-2.14;75.50
48926;BME280;39838;59.938;30.642;2023-02-11T04:41:45;99645.00;;;-2.14;75.17
48926;BME280;39838;59.938;30.642;2023-02-11T04:44:12;99637.41;;;-2.12;75.24
48926;BME280;39838;59.938;30.642;2023-02-11T04:46:39;99638.28;;;-2.12;75.22
48926;BME280;39838;59.938;30.642;2023-02-11T04:49:06;99634.06;;;-2.11;75.13
48926;BME280;39838;59.938;30.642;2023-02-11T04:51:33;99636.50;;;-2.14;75.26
48926;BME280;39838;59.938;30.642;2023-02-11T04:54:00;99633.19;;;-2.12;75.04
48926;BME280;39838;59.938;30.642;2023-02-11T04:56:31;99630.41;;;-2.18;75.04
48926;BME280;39838;59.938;30.642;2023-02-11T04:58:58;99626.06;;;-2.22;75.19
48926;BME280;39838;59.938;30.642;2023-02-11T05:01:26;99635.47;;;-2.20;75.40
48926;BME280;39838;59.938;30.642;2023-02-11T05:03:58;99626.16;;;-2.19;75.41
48926;BME280;39838;59.938;30.642;2023-02-11T05:06:25;99634.81;;;-2.14;75.19
48926;BME280;39838;59.938;30.642;2023-02-11T05:08:52;99625.59;;;-2.10;75.19
48926;BME280;39838;59.938;30.642;2023-02-11T05:11:20;99629.97;;;-2.08;75.08
48926;BME280;39838;59.938;30.642;2023-02-11T05:21:16;99602.28;;;-2.23;75.43
48926;BME280;39838;59.938;30.642;2023-02-11T05:23:44;99603.84;;;-2.26;75.51
48926;BME280;39838;59.938;30.642;2023-02-11T05:26:12;99600.38;;;-2.28;75.89
48926;BME280;39838;59.938;30.642;2023-02-11T05:28:39;99597.97;;;-2.24;76.17
48926;BME280;39838;59.938;30.642;2023-02-11T05:31:07;99596.16;;;-2.28;76.40
48926;BME280;39838;59.938;30.642;2023-02-11T05:33:34;99592.63;;;-2.31;76.88
48926;BME280;39838;59.938;30.642;2023-02-11T05:36:04;99594.44;;;-2.29;76.98
48926;BME280;39838;59.938;30.642;2023-02-11T05:38:33;99588.53;;;-2.28;77.01
48926;BME280;39838;59.938;30.642;2023-02-11T05:41:01;99582.50;;;-2.30;77.32
48926;BME280;39838;59.938;30.642;2023-02-11T05:43:33;99582.44;;;-2.31;77.63
48926;BME280;39838;59.938;30.642;2023-02-11T05:46:13;99572.69;;;-2.43;78.07
48926;BME280;39838;59.938;30.642;2023-02-11T05:48:40;99579.63;;;-2.39;77.99
48926;BME280;39838;59.938;30.642;2023-02-11T05:51:27;99583.09;;;-2.37;78.05
48926;BME280;39838;59.938;30.642;2023-02-11T05:53:56;99582.97;;;-2.40;78.80
48926;BME280;39838;59.938;30.642;2023-02-11T05:56:26;99581.25;;;-2.41;78.94
48926;BME280;39838;59.938;30.642;2023-02-11T05:58:53;99569.22;;;-2.45;79.35
48926;BME280;39838;59.938;30.642;2023-02-11T06:01:20;99565.69;;;-2.49;79.79
48926;BME280;39838;59.938;30.642;2023-02-11T06:03:56;99560.44;;;-2.53;80.04
48926;BME280;39838;59.938;30.642;2023-02-11T06:06:23;99559.38;;;-2.58;80.64
48926;BME280;39838;59.938;30.642;2023-02-11T06:08:51;99550.91;;;-2.59;80.77
48926;BME280;39838;59.938;30.642;2023-02-11T06:11:19;99554.22;;;-2.61;80.96
48926;BME280;39838;59.938;30.642;2023-02-11T06:13:46;99550.22;;;-2.55;80.95
48926;BME280;39838;59.938;30.642;2023-02-11T06:16:13;99548.75;;;-2.48;80.81
48926;BME280;39838;59.938;30.642;2023-02-11T06:18:40;99543.09;;;-2.41;80.98
48926;BME280;39838;59.938;30.642;2023-02-11T06:21:08;99541.59;;;-2.36;81.03
48926;BME280;39838;59.938;30.642;2023-02-11T06:23:36;99538.28;;;-2.33;80.88
48926;BME280;39838;59.938;30.642;2023-02-11T06:26:04;99540.03;;;-2.31;81.17
48926;BME280;39838;59.938;30.642;2023-02-11T06:28:32;99533.34;;;-2.29;81.33
48926;BME280;39838;59.938;30.642;2023-02-11T06:31:04;99530.00;;;-2.28;81.16
48926;BME280;39838;59.938;30.642;2023-02-11T06:33:32;99530.25;;;-2.20;81.21
48926;BME280;39838;59.938;30.642;2023-02-11T06:36:00;99523.72;;;-2.13;81.12
48926;BME280;39838;59.938;30.642;2023-02-11T06:38:27;99527.16;;;-2.11;81.09
48926;BME280;39838;59.938;30.642;2023-02-11T06:40:54;99525.44;;;-2.12;81.03
48926;BME280;39838;59.938;30.642;2023-02-11T06:43:21;99524.75;;;-2.08;81.09
48926;BME280;39838;59.938;30.642;2023-02-11T06:45:53;99518.22;;;-2.00;81.20
48926;BME280;39838;59.938;30.642;2023-02-11T06:48:20;99514.16;;;-1.95;80.83
48926;BME280;39838;59.938;30.642;2023-02-11T06:50:47;99516.63;;;-1.97;81.13
48926;BME280;39838;59.938;30.642;2023-02-11T06:53:15;99503.22;;;-1.93;81.20
48926;BME280;39838;59.938;30.642;2023-02-11T06:55:42;99504.19;;;-1.89;80.99
48926;BME280;39838;59.938;30.642;2023-02-11T06:58:09;99503.59;;;-1.82;81.13
48926;BME280;39838;59.938;30.642;2023-02-11T07:00:36;99504.59;;;-1.77;80.82
48926;BME280;39838;59.938;30.642;2023-02-11T07:03:05;99501.34;;;-1.73;81.02
48926;BME280;39838;59.938;30.642;2023-02-11T07:05:32;99501.34;;;-1.73;81.01
48926;BME280;39838;59.938;30.642;2023-02-11T07:07:59;99490.38;;;-1.70;80.98
48926;BME280;39838;59.938;30.642;2023-02-11T07:10:26;99489.56;;;-1.69;80.84
48926;BME280;39838;59.938;30.642;2023-02-11T07:12:53;99486.25;;;-1.67;81.04
48926;BME280;39838;59.938;30.642;2023-02-11T07:15:20;99485.47;;;-1.64;80.62
48926;BME280;39838;59.938;30.642;2023-02-11T07:17:48;99484.09;;;-1.54;81.04
48926;BME280;39838;59.938;30.642;2023-02-11T07:20:16;99482.50;;;-1.51;80.68
48926;BME280;39838;59.938;30.642;2023-02-11T07:22:44;99476.03;;;-1.41;80.53
48926;BME280;39838;59.938;30.642;2023-02-11T07:25:11;99472.13;;;-1.30;80.18
48926;BME280;39838;59.938;30.642;2023-02-11T07:27:38;99475.50;;;-1.02;80.38
48926;BME280;39838;59.938;30.642;2023-02-11T07:30:06;99476.94;;;-0.82;80.08
48926;BME280;39838;59.938;30.642;2023-02-11T07:32:33;99468.25;;;-0.60;79.63
48926;BME280;39838;59.938;30.642;2023-02-11T07:35:00;99466.16;;;-0.43;78.88
48926;BME280;39838;59.938;30.642;2023-02-11T07:37:32;99457.22;;;-0.28;78.49
48926;BME280;39838;59.938;30.642;2023-02-11T07:39:59;99448.28;;;-0.12;78.36
48926;BME280;39838;59.938;30.642;2023-02-11T07:42:27;99446.81;;;-0.02;78.00
48926;BME280;39838;59.938;30.642;2023-02-11T07:44:54;99456.38;;;0.07;77.50
48926;BME280;39838;59.938;30.642;2023-02-11T07:47:21;99454.00;;;0.13;77.13
48926;BME280;39838;59.938;30.642;2023-02-11T07:49:48;99452.50;;;0.21;77.08
48926;BME280;39838;59.938;30.642;2023-02-11T07:52:15;99447.69;;;0.33;76.48
48926;BME280;39838;59.938;30.642;2023-02-11T07:54:44;99449.53;;;0.39;75.81
48926;BME280;39838;59.938;30.642;2023-02-11T07:57:11;99454.72;;;0.42;75.62
48926;BME280;39838;59.938;30.642;2023-02-11T07:59:38;99450.47;;;0.42;74.98
48926;BME280;39838;59.938;30.642;2023-02-11T08:02:05;99443.66;;;0.43;75.10
48926;BME280;39838;59.938;30.642;2023-02-11T08:04:32;99454.72;;;0.42;74.69
48926;BME280;39838;59.938;30.642;2023-02-11T08:06:59;99448.88;;;0.47;75.09
48926;BME280;39838;59.938;30.642;2023-02-11T08:09:26;99448.97;;;0.52;74.29
48926;BME280;39838;59.938;30.642;2023-02-11T08:11:55;99460.91;;;0.51;74.37
48926;BME280;39838;59.938;30.642;2023-02-11T08:14:22;99460.16;;;0.56;74.61
48926;BME280;39838;59.938;30.642;2023-02-11T08:16:49;99453.50;;;0.62;74.21
48926;BME280;39838;59.938;30.642;2023-02-11T08:19:16;99451.84;;;0.66;73.95
48926;BME280;39838;59.938;30.642;2023-02-11T08:21:44;99436.59;;;0.69;73.59
48926;BME280;39838;59.938;30.642;2023-02-11T08:24:11;99443.44;;;0.70;73.18
48926;BME280;39838;59.938;30.642;2023-02-11T08:26:38;99437.53;;;0.72;73.82
48926;BME280;39838;59.938;30.642;2023-02-11T08:29:09;99441.06;;;0.79;73.25
48926;BME280;39838;59.938;30.642;2023-02-11T08:31:38;99439.50;;;0.84;73.26
48926;BME280;39838;59.938;30.642;2023-02-11T08:34:05;99433.50;;;0.82;72.34
48926;BME280;39838;59.938;30.642;2023-02-11T08:36:34;99428.38;;;0.82;72.72
48926;BME280;39838;59.938;30.642;2023-02-11T08:39:04;99430.16;;;0.86;73.35
48926;BME280;39838;59.938;30.642;2023-02-11T08:41:32;99434.56;;;0.93;72.84
48926;BME280;39838;59.938;30.642;2023-02-11T08:44:00;99425.34;;;1.01;72.56
48926;BME280;39838;59.938;30.642;2023-02-11T08:46:28;99417.75;;;1.03;72.55
48926;BME280;39838;59.938;30.642;2023-02-11T08:48:56;99418.66;;;1.06;72.26
48926;BME280;39838;59.938;30.642;2023-02-11T08:51:24;99414.41;;;1.07;72.57
48926;BME280;39838;59.938;30.642;2023-02-11T08:53:53;99419.78;;;1.21;72.34
48926;BME280;39838;59.938;30.642;2023-02-11T08:56:21;99419.94;;;1.28;72.02
48926;BME280;39838;59.938;30.642;2023-02-11T08:58:49;99415.81;;;1.35;71.46
48926;BME280;39838;59.938;30.642;2023-02-11T09:01:18;99416.84;;;1.43;71.48
48926;BME280;39838;59.938;30.642;2023-02-11T09:03:47;99422.22;;;1.57;71.38
48926;BME280;39838;59.938;30.642;2023-02-11T09:06:14;99426.75;;;1.70;70.63
48926;BME280;39838;59.938;30.642;2023-02-11T09:08:44;99399.34;;;1.66;70.43
48926;BME280;39838;59.938;30.642;2023-02-11T09:11:12;99412.50;;;1.86;70.23
48926;BME280;39838;59.938;30.642;2023-02-11T09:13:40;99419.53;;;1.98;69.61
48926;BME280;39838;59.938;30.642;2023-02-11T09:16:15;99422.94;;;1.97;69.20
48926;BME280;39838;59.938;30.642;2023-02-11T09:18:42;99425.34;;;1.89;69.56
48926;BME280;39838;59.938;30.642;2023-02-11T09:21:12;99425.19;;;1.80;69.37
48926;BME280;39838;59.938;30.642;2023-02-11T09:23:39;99422.47;;;1.71;69.58
48926;BME280;39838;59.938;30.642;2023-02-11T09:26:10;99416.44;;;1.69;69.88
48926;BME280;39838;59.938;30.642;2023-02-11T09:28:38;99409.59;;;1.68;69.72
48926;BME280;39838;59.938;30.642;2023-02-11T09:31:06;99415.69;;;1.74;69.90
48926;BME280;39838;59.938;30.642;2023-02-11T09:33:34;99409.84;;;1.81;69.78
48926;BME280;39838;59.938;30.642;2023-02-11T09:36:02;99405.69;;;1.88;69.40
48926;BME280;39838;59.938;30.642;2023-02-11T09:38:31;99403.16;;;1.89;69.04
48926;BME280;39838;59.938;30.642;2023-02-11T09:40:59;99396.38;;;1.90;69.30
48926;BME280;39838;59.938;30.642;2023-02-11T09:43:32;99413.69;;;2.06;69.09
48926;BME280;39838;59.938;30.642;2023-02-11T09:46:01;99406.13;;;2.14;68.71
48926;BME280;39838;59.938;30.642;2023-02-11T09:48:29;99407.75;;;2.09;68.60
48926;BME280;39838;59.938;30.642;2023-02-11T09:51:04;99402.69;;;2.10;68.60
48926;BME280;39838;59.938;30.642;2023-02-11T09:53:38;99403.66;;;2.18;68.87
48926;BME280;39838;59.938;30.642;2023-02-11T09:56:11;99397.69;;;2.19;68.65
48926;BME280;39838;59.938;30.642;2023-02-11T09:58:40;99396.75;;;2.16;68.29
48926;BME280;39838;59.938;30.642;2023-02-11T10:01:14;99407.13;;;2.22;68.64
48926;BME280;39838;59.938;30.642;2023-02-11T10:03:58;99412.41;;;2.31;68.01
48926;BME280;39838;59.938;30.642;2023-02-11T10:06:39;99406.28;;;2.23;68.28
48926;BME280;39838;59.938;30.642;2023-02-11T10:09:28;99401.00;;;2.14;67.92
48926;BME280;39838;59.938;30.642;2023-02-11T10:12:09;99398.97;;;1.95;68.24
48926;BME280;39838;59.938;30.642;2023-02-11T10:15:05;99401.31;;;1.81;68.71
48926;BME280;39838;59.938;30.642;2023-02-11T10:17:39;99386.25;;;1.51;68.75
48926;BME280;39838;59.938;30.642;2023-02-11T10:20:22;99397.38;;;1.51;69.65
48926;BME280;39838;59.938;30.642;2023-02-11T10:22:53;99404.97;;;1.48;69.59
48926;BME280;39838;59.938;30.642;2023-02-11T10:25:24;99395.34;;;1.35;69.62
48926;BME280;39838;59.938;30.642;2023-02-11T10:27:54;99399.41;;;1.25;69.24
48926;BME280;39838;59.938;30.642;2023-02-11T10:30:27;99389.78;;;1.12;69.74
48926;BME280;39838;59.938;30.642;2023-02-11T10:32:59;99386.84;;;0.94;69.66
48926;BME280;39838;59.938;30.642;2023-02-11T10:35:28;99400.31;;;0.85;69.88
48926;BME280;39838;59.938;30.642;2023-02-11T10:37:56;99402.56;;;0.71;70.65
48926;BME280;39838;59.938;30.642;2023-02-11T10:40:26;99412.44;;;0.54;70.13
48926;BME280;39838;59.938;30.642;2023-02-11T10:42:55;99389.59;;;0.26;70.57
48926;BME280;39838;59.938;30.642;2023-02-11T10:45:27;99409.34;;;0.33;71.25
48926;BME280;39838;59.938;30.642;2023-02-11T10:47:56;99412.59;;;0.26;71.79
48926;BME280;39838;59.938;30.642;2023-02-11T10:50:25;99410.00;;;0.24;71.82
48926;BME280;39838;59.938;30.642;2023-02-11T10:53:10;99417.22;;;0.41;71.88
48926;BME280;39838;59.938;30.642;2023-02-11T10:55:48;99416.53;;;0.48;71.48
48926;BME280;39838;59.938;30.642;2023-02-11T10:58:23;99423.69;;;0.63;71.19
48926;BME280;39838;59.938;30.642;2023-02-11T11:00:52;99422.22;;;0.74;71.30
48926;BME280;39838;59.938;30.642;2023-02-11T11:03:22;99393.97;;;0.68;71.25
48926;BME280;39838;59.938;30.642;2023-02-11T11:05:51;99413.13;;;0.87;71.26
48926;BME280;39838;59.938;30.642;2023-02-11T11:08:18;99422.72;;;0.97;71.06
48926;BME280;39838;59.938;30.642;2023-02-11T11:10:48;99371.84;;;0.68;70.81
48926;BME280;39838;59.938;30.642;2023-02-11T11:13:30;99409.97;;;1.00;70.58
48926;BME280;39838;59.938;30.642;2023-02-11T11:16:20;99405.66;;;0.96;69.87
48926;BME280;39838;59.938;30.642;2023-02-11T11:18:48;99446.91;;;1.11;70.38
48926;BME280;39838;59.938;30.642;2023-02-11T11:21:19;99441.78;;;1.11;70.16
48926;BME280;39838;59.938;30.642;2023-02-11T11:23:49;99456.31;;;1.14;70.36
48926;BME280;39838;59.938;30.642;2023-02-11T11:26:19;99445.03;;;1.04;69.66
48926;BME280;39838;59.938;30.642;2023-02-11T11:28:58;99439.53;;;0.86;69.38
48926;BME280;39838;59.938;30.642;2023-02-11T11:31:30;99453.94;;;0.82;69.94
48926;BME280;39838;59.938;30.642;2023-02-11T11:34:00;99462.66;;;0.90;69.77
48926;BME280;39838;59.938;30.642;2023-02-11T11:36:34;99468.69;;;0.94;69.57
48926;BME280;39838;59.938;30.642;2023-02-11T11:39:16;99460.66;;;0.77;69.09
48926;BME280;39838;59.938;30.642;2023-02-11T11:41:56;99484.25;;;0.67;69.22
48926;BME280;39838;59.938;30.642;2023-02-11T11:44:27;99486.63;;;0.59;69.57
48926;BME280;39838;59.938;30.642;2023-02-11T11:47:19;99496.81;;;0.56;69.87
48926;BME280;39838;59.938;30.642;2023-02-11T11:49:54;99490.69;;;0.49;69.63
48926;BME280;39838;59.938;30.642;2023-02-11T11:52:36;99511.03;;;0.46;69.51
48926;BME280;39838;59.938;30.642;2023-02-11T11:55:12;99509.16;;;0.39;69.59
48926;BME280;39838;59.938;30.642;2023-02-11T11:57:43;99519.44;;;0.41;69.85
48926;BME280;39838;59.938;30.642;2023-02-11T12:00:17;99521.88;;;0.36;70.28
48926;BME280;39838;59.938;30.642;2023-02-11T12:03:01;99527.09;;;0.41;70.18
48926;BME280;39838;59.938;30.642;2023-02-11T12:05:32;99532.81;;;0.32;71.02
48926;BME280;39838;59.938;30.642;2023-02-11T12:08:08;99537.94;;;0.32;70.30
48926;BME280;39838;59.938;30.642;2023-02-11T12:10:47;99549.53;;;0.19;69.43
48926;BME280;39838;59.938;30.642;2023-02-11T12:16:15;99533.97;;;-0.21;70.17
48926;BME280;39838;59.938;30.642;2023-02-11T12:19:13;99564.19;;;-0.07;70.87
48926;BME280;39838;59.938;30.642;2023-02-11T12:21:48;99585.50;;;-0.05;70.69
48926;BME280;39838;59.938;30.642;2023-02-11T12:24:40;99574.22;;;-0.13;70.85
48926;BME280;39838;59.938;30.642;2023-02-11T12:27:15;99581.25;;;-0.04;71.09
48926;BME280;39838;59.938;30.642;2023-02-11T12:30:01;99586.25;;;-0.07;71.06
48926;BME280;39838;59.938;30.642;2023-02-11T12:32:37;99602.41;;;-0.08;71.65
48926;BME280;39838;59.938;30.642;2023-02-11T12:35:25;99605.91;;;-0.06;71.35
48926;BME280;39838;59.938;30.642;2023-02-11T12:38:23;99613.31;;;-0.14;71.39
48926;BME280;39838;59.938;30.642;2023-02-11T12:41:02;99615.94;;;-0.12;71.97
48926;BME280;39838;59.938;30.642;2023-02-11T12:43:36;99617.47;;;-0.17;71.95
48926;BME280;39838;59.938;30.642;2023-02-11T12:46:15;99607.69;;;-0.32;71.91
48926;BME280;39838;59.938;30.642;2023-02-11T12:49:19;99622.84;;;-0.38;71.89
48926;BME280;39838;59.938;30.642;2023-02-11T12:52:08;99595.81;;;-0.60;72.13
48926;BME280;39838;59.938;30.642;2023-02-11T12:54:43;99631.94;;;-0.46;72.78
48926;BME280;39838;59.938;30.642;2023-02-11T12:57:17;99628.44;;;-0.50;73.17
48926;BME280;39838;59.938;30.642;2023-02-11T12:59:51;99652.25;;;-0.21;72.94
48926;BME280;39838;59.938;30.642;2023-02-11T13:02:29;99657.91;;;-0.03;72.57
48926;BME280;39838;59.938;30.642;2023-02-11T13:05:03;99666.75;;;0.09;72.69
48926;BME280;39838;59.938;30.642;2023-02-11T13:07:35;99638.81;;;-0.15;73.06
48926;BME280;39838;59.938;30.642;2023-02-11T13:10:19;99663.19;;;-0.26;73.64
48926;BME280;39838;59.938;30.642;2023-02-11T13:12:49;99662.47;;;-0.49;74.16
48926;BME280;39838;59.938;30.642;2023-02-11T13:15:34;99674.34;;;-0.77;74.84
48926;BME280;39838;59.938;30.642;2023-02-11T13:18:12;99645.16;;;-1.12;75.67
48926;BME280;39838;59.938;30.642;2023-02-11T13:20:46;99685.25;;;-1.08;76.11
48926;BME280;39838;59.938;30.642;2023-02-11T13:23:22;99682.03;;;-1.28;76.13
48926;BME280;39838;59.938;30.642;2023-02-11T13:25:57;99703.06;;;-1.33;76.55
48926;BME280;39838;59.938;30.642;2023-02-11T13:28:34;99703.47;;;-1.47;76.88